Main page
METAR-TAF:

METAR-TAF

Airports :

Forest City Municipal Airport

Forest City, Iowa, United States

latitude: 43-14-05N, longitude: 093-37-27W, elevation: 1230 ft

Current weather observation

The report was made 20 minutes ago, at 20:15 UTC
Wind 6 mph from the East
Temperature 70°F
Humidity 35%
Pressure 29.95 in. Hg
Visibility: 10 miles
Broken clouds at a height of 10000 ft
Broken clouds at a height of 12000 ft

METAR: KFXY 192015Z AUTO 10005KT 10SM BKN100 BKN120 21/05 A2995 RMK AO2

Time: 15:35 (20:35 UTC)


TAF: missing

Weather observations and forecasts of more than 4000 airports (METAR and TAF reports).

The available stations are represented by yellow and red dots on the map.

Hover mouse over dot to see the name of the station.

Then click to see weather observations and forecasts.

To change the map : click on the green buttons with a black cross to zoom in, on the green button with a dash to zoom out, or on the green arrows for adjacent maps.


METAR-TAF: